Time;durP1;ratioP1;P1;durP2;ratioP2;P2;SDS_P1;SDS_P2;PMS_P1;PMS_P2;Temp;Humidity;BMP_temperature;BMP_pressure;BME280_temperature;BME280_humidity;BME280_pressure;Samples;Min_cycle;Max_cycle;Signal;HPM_P1;HPM_P2
2021/08/04 00:00:26;;;;;;;1.50;1.40;;;15.90;88.20;;;;;;4993444;28;20065;-67
2021/08/04 00:02:52;;;;;;;1.88;1.52;;;15.90;88.40;;;;;;4998861;28;20027;-67
2021/08/04 00:05:19;;;;;;;1.73;1.38;;;15.90;88.70;;;;;;4991713;28;20394;-67
2021/08/04 00:07:45;;;;;;;2.28;1.25;;;15.90;88.80;;;;;;4993274;28;20042;-67
2021/08/04 00:10:11;;;;;;;1.83;1.38;;;15.90;88.80;;;;;;4992972;28;20018;-67
2021/08/04 00:12:37;;;;;;;1.42;1.30;;;15.90;88.90;;;;;;4991051;28;20026;-67
2021/08/04 00:15:03;;;;;;;1.50;1.25;;;16.00;88.90;;;;;;4991571;28;20086;-67
2021/08/04 00:17:29;;;;;;;3.08;1.20;;;16.00;88.80;;;;;;4999031;28;20478;-67
2021/08/04 00:19:55;;;;;;;1.35;1.02;;;15.90;88.80;;;;;;4992477;28;20110;-67
2021/08/04 00:22:21;;;;;;;0.93;0.93;;;16.00;88.70;;;;;;4993644;28;20137;-67
2021/08/04 00:24:47;;;;;;;1.60;1.30;;;15.90;88.80;;;;;;4992064;28;20112;-67
2021/08/04 00:27:12;;;;;;;1.40;1.30;;;15.90;88.80;;;;;;4992003;28;20032;-67
2021/08/04 00:29:38;;;;;;;2.22;1.20;;;15.90;88.90;;;;;;4992688;28;20102;-67
2021/08/04 00:32:04;;;;;;;1.33;0.93;;;15.90;88.80;;;;;;4992490;28;20130;-67
2021/08/04 00:34:29;;;;;;;1.35;1.25;;;15.80;88.90;;;;;;4992094;28;20069;-67
2021/08/04 00:36:55;;;;;;;1.25;1.15;;;15.80;89.10;;;;;;4991693;28;20042;-67
2021/08/04 00:39:21;;;;;;;1.10;1.10;;;15.80;89.20;;;;;;4992372;28;20105;-63
2021/08/04 00:41:46;;;;;;;2.45;1.30;;;15.80;89.10;;;;;;4992734;28;20034;-67
2021/08/04 00:44:12;;;;;;;4.65;1.17;;;15.70;89.20;;;;;;4992318;28;20033;-71
2021/08/04 00:46:42;;;;;;;1.33;1.23;;;15.70;89.30;;;;;;4986647;28;20022;-65
2021/08/04 00:49:09;;;;;;;1.20;1.10;;;15.70;89.60;;;;;;4992336;28;20031;-65
2021/08/04 00:51:35;;;;;;;1.40;1.30;;;15.70;89.60;;;;;;4992644;28;20038;-64
2021/08/04 00:54:06;;;;;;;3.08;1.40;;;15.70;89.70;;;;;;4992054;28;20407;-67
2021/08/04 00:56:32;;;;;;;2.75;1.40;;;15.70;89.90;;;;;;4972410;28;20023;-64
2021/08/04 00:58:59;;;;;;;2.55;1.60;;;15.70;89.80;;;;;;4989130;28;20031;-65
2021/08/04 01:01:56;;;;;;;1.52;1.42;;;15.70;89.90;;;;;;4994058;28;20026;-70
2021/08/04 01:04:34;;;;;;;2.05;1.30;;;15.60;90.00;;;;;;4992611;28;20057;-64
2021/08/04 01:07:08;;;;;;;1.38;1.27;;;15.60;90.00;;;;;;4991318;28;20489;-65
2021/08/04 01:09:45;;;;;;;2.58;1.33;;;15.60;90.00;;;;;;4992085;28;20034;-64
2021/08/04 01:12:17;;;;;;;2.78;1.40;;;15.60;90.10;;;;;;4990686;28;20041;-66
2021/08/04 01:14:44;;;;;;;3.42;1.70;;;15.60;90.10;;;;;;4990791;28;20052;-64
2021/08/04 01:17:11;;;;;;;2.40;1.65;;;15.60;90.00;;;;;;4991850;28;20406;-64
2021/08/04 01:20:19;;;;;;;1.20;1.15;;;15.60;90.10;;;;;;4991876;28;20140;-65
2021/08/04 01:23:11;;;;;;;2.20;1.50;;;15.60;90.20;;;;;;4938759;28;20109;-72
2021/08/04 01:25:59;;;;;;;2.17;1.40;;;15.50;90.20;;;;;;4992041;28;20520;-70
2021/08/04 01:28:30;;;;;;;1.48;1.38;;;15.40;90.30;;;;;;4993030;28;20797;-65
2021/08/04 01:31:15;;;;;;;1.98;1.65;;;15.40;90.40;;;;;;4991400;28;20065;-66
2021/08/04 01:33:47;;;;;;;2.08;1.55;;;15.40;90.60;;;;;;4990972;28;20030;-65
2021/08/04 01:36:13;;;;;;;;;;;15.40;90.60;;;;;;4993077;28;20096;-65
2021/08/04 01:38:40;;;;;;;1.52;1.40;;;15.50;90.50;;;;;;4990645;28;19910;-66
2021/08/04 01:41:07;;;;;;;2.97;1.40;;;15.50;90.70;;;;;;4991779;28;20065;-68
2021/08/04 01:43:34;;;;;;;1.50;1.40;;;15.50;90.70;;;;;;4991203;28;20090;-66
2021/08/04 01:46:00;;;;;;;1.70;1.42;;;15.50;90.80;;;;;;4990258;28;20081;-69
2021/08/04 01:48:27;;;;;;;2.33;1.40;;;15.50;90.90;;;;;;4990850;28;20037;-66
2021/08/04 01:50:57;;;;;;;1.85;1.75;;;15.50;90.90;;;;;;4990682;28;20081;-68
2021/08/04 01:53:25;;;;;;;1.95;1.60;;;15.50;90.90;;;;;;4991232;28;20027;-66
2021/08/04 01:55:50;;;;;;;3.67;1.98;;;15.50;91.00;;;;;;4990316;28;20030;-65
2021/08/04 01:58:16;;;;;;;4.07;1.70;;;15.40;91.00;;;;;;4991392;28;20089;-67
2021/08/04 02:00:43;;;;;;;4.38;1.80;;;15.40;91.10;;;;;;4991282;28;20085;-71
2021/08/04 02:03:08;;;;;;;1.88;1.77;;;15.40;91.10;;;;;;4990501;28;20023;-67
2021/08/04 02:05:34;;;;;;;2.10;1.90;;;15.40;91.30;;;;;;4989959;28;20592;-65
2021/08/04 02:08:14;;;;;;;2.38;2.00;;;15.40;91.40;;;;;;4990911;28;20778;-65
2021/08/04 02:10:51;;;;;;;2.58;1.85;;;15.40;91.50;;;;;;4991287;28;20026;-64
2021/08/04 02:13:32;;;;;;;3.63;2.13;;;15.40;91.50;;;;;;4987129;28;20033;-67
2021/08/04 02:16:26;;;;;;;3.80;1.85;;;15.40;91.50;;;;;;4989195;28;20420;-65
2021/08/04 02:19:05;;;;;;;3.17;1.85;;;15.30;91.50;;;;;;4994771;28;20026;-66
2021/08/04 02:21:32;;;;;;;2.20;2.00;;;15.40;91.50;;;;;;4990782;28;20041;-67
2021/08/04 02:23:59;;;;;;;3.00;1.80;;;15.30;91.40;;;;;;4990979;28;20022;-66
2021/08/04 02:26:27;;;;;;;1.98;1.75;;;15.30;91.50;;;;;;4989584;28;20113;-69
2021/08/04 02:28:56;;;;;;;2.10;1.90;;;15.30;91.70;;;;;;4990773;28;20030;-67
2021/08/04 02:31:22;;;;;;;3.13;2.00;;;15.30;91.70;;;;;;4990785;28;20069;-67
2021/08/04 02:33:48;;;;;;;2.60;2.00;;;15.20;91.60;;;;;;4990127;28;20045;-64
2021/08/04 02:36:14;;;;;;;2.67;2.30;;;15.20;91.70;;;;;;4989202;28;20030;-66
2021/08/04 02:38:40;;;;;;;3.05;1.88;;;15.20;91.70;;;;;;4990486;28;20077;-65
2021/08/04 02:41:06;;;;;;;2.50;1.92;;;15.20;91.80;;;;;;4990366;28;20038;-67
2021/08/04 02:43:32;;;;;;;2.60;2.20;;;15.20;91.90;;;;;;4990869;28;20114;-70
2021/08/04 02:45:59;;;;;;;1.88;1.77;;;15.20;91.90;;;;;;4972112;28;20034;-64
2021/08/04 02:48:25;;;;;;;3.03;2.28;;;15.10;91.80;;;;;;4989815;28;20026;-64
2021/08/04 02:50:54;;;;;;;2.90;2.13;;;15.10;91.80;;;;;;4990668;28;20624;-64
2021/08/04 02:53:20;;;;;;;4.68;2.08;;;15.00;91.90;;;;;;4990069;28;20026;-70
2021/08/04 02:55:49;;;;;;;2.10;1.90;;;15.00;92.00;;;;;;4989490;28;20078;-70
2021/08/04 02:58:15;;;;;;;2.10;2.00;;;15.00;92.10;;;;;;4990014;28;20026;-64
2021/08/04 03:00:40;;;;;;;2.28;2.08;;;15.00;92.10;;;;;;4990052;28;20100;-65
2021/08/04 03:03:06;;;;;;;2.53;2.28;;;15.10;92.10;;;;;;5004271;23;20064;-65
2021/08/04 03:05:32;;;;;;;4.88;2.00;;;15.10;92.10;;;;;;4993850;28;20062;-65
2021/08/04 03:07:58;;;;;;;3.50;2.00;;;15.10;92.20;;;;;;4986483;28;20022;-65
2021/08/04 03:10:24;;;;;;;3.17;2.17;;;15.10;92.20;;;;;;5009437;28;20156;-65
2021/08/04 03:12:50;;;;;;;2.47;2.00;;;15.10;92.30;;;;;;5003512;28;20394;-66
2021/08/04 03:15:16;;;;;;;3.05;1.90;;;15.10;92.20;;;;;;5009361;28;20022;-65
2021/08/04 03:17:41;;;;;;;2.40;2.00;;;15.00;92.20;;;;;;5008381;28;20026;-65
2021/08/04 03:20:08;;;;;;;3.53;2.00;;;15.00;92.30;;;;;;5009883;28;20111;-65
2021/08/04 03:22:33;;;;;;;2.13;1.92;;;15.00;92.30;;;;;;5008682;28;20033;-65
2021/08/04 03:24:59;;;;;;;2.10;1.85;;;15.00;92.20;;;;;;5009335;28;20033;-65
2021/08/04 03:27:24;;;;;;;2.92;2.20;;;15.00;92.30;;;;;;5008231;28;20041;-65
2021/08/04 03:29:50;;;;;;;2.33;2.13;;;15.00;92.30;;;;;;5010081;28;20022;-66
2021/08/04 03:32:16;;;;;;;2.88;1.98;;;15.00;92.30;;;;;;5002433;28;20066;-65
2021/08/04 03:34:42;;;;;;;3.65;2.30;;;14.90;92.30;;;;;;5009388;28;20066;-65
2021/08/04 03:37:07;;;;;;;2.45;1.65;;;14.90;92.30;;;;;;4997859;28;20076;-65
2021/08/04 03:39:33;;;;;;;4.78;1.98;;;14.90;92.40;;;;;;4995095;28;20525;-66
2021/08/04 03:41:59;;;;;;;2.50;2.05;;;14.90;92.50;;;;;;5009497;28;20105;-65
2021/08/04 03:44:24;;;;;;;2.85;2.08;;;14.90;92.50;;;;;;4988509;28;20022;-65
2021/08/04 03:46:50;;;;;;;5.88;2.20;;;14.90;92.50;;;;;;5001079;28;20032;-65
2021/08/04 03:49:16;;;;;;;3.22;2.38;;;14.90;92.50;;;;;;5009080;28;20038;-65
2021/08/04 03:51:42;;;;;;;2.05;1.85;;;14.90;92.60;;;;;;5005199;28;20030;-65
2021/08/04 03:54:08;;;;;;;2.13;2.00;;;15.00;92.60;;;;;;4994045;28;20101;-65
2021/08/04 03:56:34;;;;;;;2.55;1.85;;;15.00;92.60;;;;;;5012026;28;20469;-65
2021/08/04 03:59:00;;;;;;;3.10;2.00;;;15.00;92.60;;;;;;4995739;28;20064;-65
2021/08/04 04:01:26;;;;;;;3.42;2.10;;;15.00;92.60;;;;;;5005631;28;20022;-66
2021/08/04 04:03:52;;;;;;;2.20;2.05;;;15.10;92.60;;;;;;5006938;28;20029;-65
2021/08/04 04:06:17;;;;;;;2.35;2.00;;;15.00;92.60;;;;;;5010765;28;20030;-66
2021/08/04 04:08:44;;;;;;;2.75;1.92;;;15.00;92.70;;;;;;5012034;28;20366;-65
2021/08/04 04:11:10;;;;;;;3.53;2.40;;;15.10;92.70;;;;;;5012147;28;20567;-66
2021/08/04 04:13:35;;;;;;;2.53;1.95;;;15.10;92.80;;;;;;5012258;28;20018;-66
2021/08/04 04:16:01;;;;;;;3.10;2.10;;;15.10;92.80;;;;;;5009465;28;20616;-65
2021/08/04 04:18:27;;;;;;;5.72;1.95;;;15.10;92.70;;;;;;5012924;28;20022;-66
2021/08/04 04:20:52;;;;;;;2.10;1.85;;;15.10;92.70;;;;;;5008901;28;20104;-66
2021/08/04 04:23:18;;;;;;;3.72;2.15;;;15.10;92.70;;;;;;5021712;28;20122;-66
2021/08/04 04:25:43;;;;;;;3.33;2.25;;;15.20;92.90;;;;;;5017968;28;20465;-65
2021/08/04 04:28:09;;;;;;;2.47;2.28;;;15.20;92.70;;;;;;5011084;28;20152;-65
2021/08/04 04:30:35;;;;;;;3.22;2.15;;;15.20;92.70;;;;;;5010210;28;20510;-65
2021/08/04 04:33:00;;;;;;;3.13;2.22;;;15.20;92.70;;;;;;5011255;28;20064;-65
2021/08/04 04:35:26;;;;;;;3.47;1.83;;;15.20;92.70;;;;;;5009699;28;20025;-66
2021/08/04 04:37:51;;;;;;;3.03;2.20;;;15.20;92.70;;;;;;4994033;28;20125;-65
2021/08/04 04:40:17;;;;;;;2.50;1.80;;;15.20;92.70;;;;;;4989520;28;20089;-65
2021/08/04 04:42:43;;;;;;;2.92;1.70;;;15.20;92.70;;;;;;5012075;28;20038;-66
2021/08/04 04:45:09;;;;;;;2.03;1.60;;;15.20;92.60;;;;;;5007332;28;20019;-66
2021/08/04 04:47:34;;;;;;;1.65;1.55;;;15.20;92.60;;;;;;5011109;28;20486;-65
2021/08/04 04:50:00;;;;;;;3.40;2.00;;;15.20;92.60;;;;;;5009214;28;20026;-65
2021/08/04 04:52:26;;;;;;;2.63;1.80;;;15.10;92.60;;;;;;5012048;28;20026;-65
2021/08/04 04:54:51;;;;;;;3.58;1.67;;;15.20;92.60;;;;;;5013982;28;20034;-65
2021/08/04 04:57:17;;;;;;;2.22;1.95;;;15.10;92.60;;;;;;5012197;28;20347;-66
2021/08/04 04:59:42;;;;;;;1.50;1.40;;;15.10;92.60;;;;;;5012000;28;20343;-65
2021/08/04 05:02:08;;;;;;;2.08;1.75;;;15.10;92.50;;;;;;4993748;28;20037;-66
2021/08/04 05:04:34;;;;;;;1.98;1.60;;;15.10;92.60;;;;;;5004104;28;20036;-66
2021/08/04 05:06:59;;;;;;;2.42;1.92;;;15.10;92.50;;;;;;5010788;28;20017;-65
2021/08/04 05:09:25;;;;;;;4.00;1.60;;;15.10;92.60;;;;;;5008085;28;20072;-65
2021/08/04 05:11:50;;;;;;;2.83;1.85;;;15.20;92.70;;;;;;4998508;28;20065;-65
2021/08/04 05:14:16;;;;;;;4.45;2.22;;;15.20;92.70;;;;;;5002809;28;20031;-65
2021/08/04 05:16:41;;;;;;;1.50;1.38;;;15.20;92.60;;;;;;5010771;28;20105;-66
2021/08/04 05:19:07;;;;;;;2.30;2.10;;;15.20;92.60;;;;;;5010952;28;20041;-65
2021/08/04 05:21:32;;;;;;;2.08;1.90;;;15.20;92.60;;;;;;5009909;28;20026;-65
2021/08/04 05:23:58;;;;;;;2.40;2.20;;;15.10;92.50;;;;;;5021032;28;20029;-66
2021/08/04 05:26:24;;;;;;;2.13;1.92;;;15.10;92.60;;;;;;5007545;28;20066;-66
2021/08/04 05:28:51;;;;;;;2.70;1.73;;;15.20;92.70;;;;;;5011007;28;20022;-65
2021/08/04 05:31:17;;;;;;;2.38;2.00;;;15.20;92.60;;;;;;5004548;28;20026;-65
2021/08/04 05:33:43;;;;;;;6.43;4.43;;;15.20;92.60;;;;;;4987748;28;20033;-65
2021/08/04 05:36:09;;;;;;;1.95;1.73;;;15.20;92.60;;;;;;5008840;28;20394;-65
2021/08/04 05:38:34;;;;;;;7.45;5.47;;;15.30;92.60;;;;;;5011656;28;20025;-65
2021/08/04 05:41:00;;;;;;;2.47;2.28;;;15.30;92.60;;;;;;5006506;28;20018;-65
2021/08/04 05:43:25;;;;;;;5.07;1.73;;;15.30;92.50;;;;;;5011537;28;20505;-65
2021/08/04 05:45:51;;;;;;;2.03;1.83;;;15.30;92.50;;;;;;5010529;28;20221;-65
2021/08/04 05:48:16;;;;;;;3.50;2.00;;;15.30;92.30;;;;;;5010049;28;20021;-65
2021/08/04 05:50:42;;;;;;;1.80;1.70;;;15.40;92.40;;;;;;4994089;28;20025;-71
2021/08/04 05:53:08;;;;;;;2.35;1.70;;;15.40;92.40;;;;;;5005406;28;20494;-71
2021/08/04 05:55:34;;;;;;;2.80;1.70;;;15.30;92.30;;;;;;4999521;28;20084;-65
2021/08/04 05:58:00;;;;;;;3.75;2.30;;;15.30;92.30;;;;;;5006861;28;20034;-65
2021/08/04 06:00:26;;;;;;;1.75;1.63;;;15.40;92.50;;;;;;5011325;28;20041;-65
2021/08/04 06:02:51;;;;;;;2.50;1.83;;;15.30;92.20;;;;;;5011724;28;20393;-66
2021/08/04 06:05:17;;;;;;;4.88;3.88;;;15.30;92.30;;;;;;5011356;28;20030;-65
2021/08/04 06:07:42;;;;;;;23.20;18.13;;;15.30;92.30;;;;;;5011082;28;20096;-67
2021/08/04 06:10:09;;;;;;;6.80;2.40;;;15.40;92.40;;;;;;5011950;28;20018;-65
2021/08/04 06:12:34;;;;;;;7.45;1.85;;;15.30;92.30;;;;;;5011303;28;20794;-65
2021/08/04 06:15:00;;;;;;;2.10;1.90;;;15.40;92.30;;;;;;4991667;28;20034;-67
2021/08/04 06:17:25;;;;;;;2.78;1.65;;;15.30;92.20;;;;;;5009586;28;20030;-65
2021/08/04 06:19:51;;;;;;;3.13;1.80;;;15.30;92.20;;;;;;5002992;28;20027;-65
2021/08/04 06:22:16;;;;;;;2.13;1.85;;;15.30;92.20;;;;;;5002173;28;20057;-65
2021/08/04 06:24:42;;;;;;;3.22;2.20;;;15.30;92.30;;;;;;5001059;28;20395;-65
2021/08/04 06:27:08;;;;;;;4.00;1.88;;;15.30;92.20;;;;;;4991177;28;20023;-65
2021/08/04 06:29:33;;;;;;;1.92;1.50;;;15.30;92.20;;;;;;5004326;28;20018;-65
2021/08/04 06:31:59;;;;;;;2.60;1.80;;;15.30;92.30;;;;;;4992696;28;20025;-65
2021/08/04 06:34:24;;;;;;;2.10;1.90;;;15.40;92.20;;;;;;5005791;28;20695;-65
2021/08/04 06:36:50;;;;;;;3.90;1.63;;;15.40;92.20;;;;;;5010573;28;20383;-65
2021/08/04 06:39:15;;;;;;;2.75;2.05;;;15.40;92.20;;;;;;5010881;28;20026;-65
2021/08/04 06:41:41;;;;;;;2.70;1.77;;;15.50;92.20;;;;;;5011088;28;20037;-65
2021/08/04 06:44:07;;;;;;;3.00;1.80;;;15.50;92.20;;;;;;5011236;28;20775;-65
2021/08/04 06:46:34;;;;;;;2.17;1.80;;;15.60;92.30;;;;;;5006410;28;20019;-65
2021/08/04 06:49:00;;;;;;;2.42;1.88;;;15.70;92.20;;;;;;4991361;28;20022;-65
2021/08/04 06:51:26;;;;;;;1.67;1.50;;;15.80;92.20;;;;;;4994325;28;20096;-65
2021/08/04 06:53:51;;;;;;;2.88;2.00;;;15.80;92.10;;;;;;5010500;28;20486;-65
2021/08/04 06:56:17;;;;;;;1.88;1.77;;;15.90;92.00;;;;;;5008572;28;20683;-65
2021/08/04 06:58:42;;;;;;;4.38;2.03;;;16.00;92.00;;;;;;5006543;28;20451;-65
2021/08/04 07:01:08;;;;;;;2.13;1.55;;;16.00;91.80;;;;;;5006049;28;20036;-65
2021/08/04 07:03:35;;;;;;;1.80;1.70;;;16.10;91.80;;;;;;5010876;28;20375;-65
2021/08/04 07:06:01;;;;;;;4.38;1.83;;;16.20;91.90;;;;;;5010054;28;20022;-65
2021/08/04 07:08:27;;;;;;;1.95;1.63;;;16.20;91.80;;;;;;5010292;28;20474;-65
2021/08/04 07:10:53;;;;;;;4.07;1.63;;;16.30;91.70;;;;;;5011105;28;20389;-65
2021/08/04 07:13:18;;;;;;;2.28;2.00;;;16.40;91.40;;;;;;5010615;28;20080;-65
2021/08/04 07:15:44;;;;;;;2.67;1.80;;;16.50;91.20;;;;;;5009468;28;20030;-65
2021/08/04 07:18:09;;;;;;;1.95;1.38;;;16.50;91.10;;;;;;5010539;28;20045;-65
2021/08/04 07:20:36;;;;;;;2.45;1.40;;;16.50;91.20;;;;;;4993468;28;20038;-65
2021/08/04 07:23:02;;;;;;;1.50;1.35;;;16.70;91.10;;;;;;5010182;28;20161;-65
2021/08/04 07:25:28;;;;;;;2.30;1.63;;;17.00;90.90;;;;;;5009775;28;20101;-65
2021/08/04 07:27:53;;;;;;;1.20;1.15;;;17.20;90.60;;;;;;5010384;28;20030;-65
2021/08/04 07:30:19;;;;;;;1.48;1.38;;;17.60;90.60;;;;;;5010357;28;20109;-65
2021/08/04 07:32:45;;;;;;;3.42;1.42;;;17.50;90.30;;;;;;5010581;28;20113;-65
2021/08/04 07:35:10;;;;;;;2.00;1.50;;;17.40;89.80;;;;;;5009889;28;20371;-65
2021/08/04 07:37:36;;;;;;;2.95;1.67;;;17.20;90.10;;;;;;5013429;28;20053;-65
2021/08/04 07:40:04;;;;;;;2.38;1.48;;;17.50;90.20;;;;;;5014472;28;20029;-65
2021/08/04 07:42:30;;;;;;;2.45;1.20;;;18.00;89.70;;;;;;4996759;28;20514;-65
2021/08/04 07:44:56;;;;;;;3.72;1.50;;;18.10;89.40;;;;;;5013487;28;20089;-66
2021/08/04 07:47:22;;;;;;;2.72;1.25;;;18.10;88.50;;;;;;5014104;28;20505;-66
2021/08/04 07:49:48;;;;;;;2.42;1.55;;;18.00;88.80;;;;;;5014377;28;20022;-65
2021/08/04 07:52:14;;;;;;;2.13;1.40;;;18.00;88.40;;;;;;4995257;28;20467;-66
2021/08/04 07:54:40;;;;;;;1.88;1.52;;;17.80;88.20;;;;;;5013331;28;20093;-66
2021/08/04 07:57:06;;;;;;;1.98;1.33;;;17.60;88.10;;;;;;5013406;28;20403;-65
2021/08/04 07:59:32;;;;;;;1.92;1.38;;;17.40;88.30;;;;;;5013803;28;20069;-66
2021/08/04 08:01:57;;;;;;;2.40;1.60;;;17.30;88.70;;;;;;5014359;28;20026;-66
2021/08/04 08:04:23;;;;;;;1.90;1.48;;;17.10;89.00;;;;;;5013791;28;20026;-65
2021/08/04 08:06:49;;;;;;;2.38;1.70;;;17.10;89.40;;;;;;5012707;28;20030;-65
2021/08/04 08:09:19;;;;;;;1.70;1.60;;;17.00;89.70;;;;;;5014152;28;20033;-65
2021/08/04 08:11:44;;;;;;;1.88;1.60;;;17.00;89.70;;;;;;5013847;28;20452;-66
2021/08/04 08:14:10;;;;;;;4.07;1.70;;;17.00;89.70;;;;;;5005746;28;20034;-66
2021/08/04 08:16:36;;;;;;;1.45;1.35;;;17.00;89.40;;;;;;5010264;28;20025;-66
2021/08/04 08:19:01;;;;;;;2.00;1.50;;;16.90;89.50;;;;;;5013751;28;20105;-66
2021/08/04 08:21:27;;;;;;;4.07;2.00;;;16.90;89.60;;;;;;4995688;28;20061;-65
2021/08/04 08:23:53;;;;;;;1.83;1.70;;;16.90;89.50;;;;;;5013484;28;20037;-65
2021/08/04 08:26:21;;;;;;;2.63;1.77;;;16.90;89.60;;;;;;5012225;28;20101;-65
2021/08/04 08:28:48;;;;;;;1.50;1.38;;;16.80;89.80;;;;;;5013337;28;20446;-65
2021/08/04 08:31:14;;;;;;;4.75;1.95;;;16.90;90.00;;;;;;5012975;28;20022;-65
2021/08/04 08:33:39;;;;;;;3.70;1.65;;;16.90;90.10;;;;;;5013332;28;20048;-65
2021/08/04 08:36:05;;;;;;;4.40;1.63;;;17.00;90.00;;;;;;5011998;28;20037;-66
2021/08/04 08:38:31;;;;;;;1.67;1.40;;;17.00;89.70;;;;;;5013121;28;20057;-65
2021/08/04 08:40:56;;;;;;;1.90;1.73;;;17.20;89.70;;;;;;5013514;28;20136;-65
2021/08/04 08:43:22;;;;;;;2.25;1.45;;;17.30;89.50;;;;;;5012984;28;20069;-65
2021/08/04 08:45:49;;;;;;;4.28;1.67;;;17.40;89.50;;;;;;5012196;28;20096;-65
2021/08/04 08:48:16;;;;;;;1.70;1.50;;;17.80;89.20;;;;;;5012351;28;20034;-65
2021/08/04 08:50:44;;;;;;;2.85;1.45;;;17.80;89.00;;;;;;5008708;28;20105;-65
2021/08/04 08:53:10;;;;;;;1.48;1.35;;;17.90;88.50;;;;;;5010074;28;20080;-65
2021/08/04 08:55:36;;;;;;;1.60;1.50;;;17.90;87.90;;;;;;5006373;28;20437;-65
2021/08/04 08:58:02;;;;;;;1.60;1.48;;;17.80;88.10;;;;;;5011986;28;20041;-65
2021/08/04 09:00:27;;;;;;;1.77;1.60;;;17.80;88.10;;;;;;5012527;28;20038;-65
2021/08/04 09:02:53;;;;;;;2.42;1.50;;;17.90;87.60;;;;;;5074506;23;20070;-67
2021/08/04 09:05:19;;;;;;;3.50;1.70;;;17.80;87.30;;;;;;5009910;28;20045;-67
2021/08/04 09:07:47;;;;;;;6.05;2.47;;;17.70;87.80;;;;;;5004442;28;20018;-68
2021/08/04 09:10:30;;;;;;;2.28;1.80;;;17.80;88.20;;;;;;5012772;28;20473;-68
2021/08/04 09:13:05;;;;;;;1.63;1.40;;;17.80;87.90;;;;;;5012394;28;20030;-68
2021/08/04 09:15:41;;;;;;;2.25;1.27;;;17.80;87.30;;;;;;5003151;28;20044;-67
2021/08/04 09:18:09;;;;;;;1.50;1.33;;;17.70;86.70;;;;;;4994639;28;20029;-68
2021/08/04 09:20:43;;;;;;;1.85;1.35;;;17.60;87.10;;;;;;5012639;28;20030;-68
2021/08/04 09:23:16;;;;;;;5.18;1.45;;;17.60;86.90;;;;;;5011600;28;20095;-68
2021/08/04 09:26:00;;;;;;;1.50;1.40;;;17.50;87.00;;;;;;4991937;28;20026;-68
2021/08/04 09:28:25;;;;;;;1.48;1.38;;;17.50;87.10;;;;;;4992705;28;20161;-67
2021/08/04 09:31:02;;;;;;;1.85;1.20;;;17.50;87.30;;;;;;4995046;28;20109;-67
2021/08/04 09:33:36;;;;;;;1.52;1.42;;;17.50;87.10;;;;;;4993908;28;20034;-68
2021/08/04 09:36:02;;;;;;;1.75;1.40;;;17.40;86.70;;;;;;5010857;28;20044;-68
2021/08/04 09:38:27;;;;;;;3.38;1.60;;;17.40;87.00;;;;;;5011607;28;20485;-68
2021/08/04 09:41:18;;;;;;;3.08;1.60;;;17.30;87.60;;;;;;5012484;28;20037;-67
2021/08/04 09:43:48;;;;;;;1.55;1.42;;;17.40;87.70;;;;;;5012149;28;20029;-68
2021/08/04 09:46:25;;;;;;;1.73;1.60;;;17.50;87.50;;;;;;5010930;28;20120;-67
2021/08/04 09:48:51;;;;;;;3.13;1.45;;;17.50;86.90;;;;;;5012035;28;20081;-67
2021/08/04 09:51:18;;;;;;;2.53;1.63;;;17.50;86.80;;;;;;5011547;28;20030;-68
2021/08/04 09:53:49;;;;;;;2.35;1.45;;;17.60;86.80;;;;;;4992971;28;20029;-67
2021/08/04 09:56:21;;;;;;;1.63;1.53;;;17.80;86.60;;;;;;5007619;28;20022;-68
2021/08/04 09:58:51;;;;;;;1.77;1.45;;;18.10;86.10;;;;;;4993242;28;20022;-68
2021/08/04 10:01:21;;;;;;;1.30;1.23;;;18.10;85.90;;;;;;5011732;28;20041;-67
2021/08/04 10:04:01;;;;;;;1.42;1.10;;;18.30;85.70;;;;;;5011210;28;20026;-67
2021/08/04 10:06:27;;;;;;;1.25;1.17;;;18.30;85.30;;;;;;5010643;28;20054;-68
2021/08/04 10:08:53;;;;;;;1.60;1.50;;;18.40;85.00;;;;;;5011343;28;20457;-68
2021/08/04 10:11:20;;;;;;;1.52;1.20;;;18.40;85.00;;;;;;5011814;28;20034;-68
2021/08/04 10:13:46;;;;;;;1.88;1.38;;;18.50;85.00;;;;;;5011371;28;20028;-67
2021/08/04 10:16:12;;;;;;;3.67;1.40;;;18.60;84.90;;;;;;5010317;28;20034;-67
2021/08/04 10:18:39;;;;;;;4.35;1.42;;;18.70;84.50;;;;;;5010901;28;20061;-67
2021/08/04 10:21:11;;;;;;;2.40;1.50;;;18.90;84.60;;;;;;5010798;28;20021;-68
2021/08/04 10:23:38;;;;;;;3.17;1.55;;;19.20;84.00;;;;;;5011560;28;20030;-68
2021/08/04 10:26:09;;;;;;;2.10;1.30;;;19.50;83.90;;;;;;5010004;28;20030;-68
2021/08/04 10:28:36;;;;;;;2.22;1.65;;;19.70;84.20;;;;;;5011046;28;20068;-68
2021/08/04 10:31:02;;;;;;;2.40;1.67;;;19.90;84.40;;;;;;5011592;28;20447;-68
2021/08/04 10:33:29;;;;;;;1.50;1.40;;;20.20;83.30;;;;;;5010539;28;20348;-68
2021/08/04 10:36:02;;;;;;;1.67;1.23;;;20.30;82.40;;;;;;5009737;28;20092;-68
2021/08/04 10:38:29;;;;;;;1.30;1.20;;;20.30;80.70;;;;;;5010877;28;20045;-68
2021/08/04 10:41:17;;;;;;;1.60;1.50;;;20.20;81.20;;;;;;5011272;28;20053;-68
2021/08/04 10:43:59;;;;;;;1.50;1.40;;;20.10;80.70;;;;;;5011017;28;20036;-68
2021/08/04 10:46:30;;;;;;;1.60;1.50;;;20.10;80.50;;;;;;5010022;28;20034;-68
2021/08/04 10:49:05;;;;;;;2.75;1.45;;;20.00;79.90;;;;;;5010915;28;20030;-68
2021/08/04 10:51:36;;;;;;;1.50;1.40;;;20.00;79.70;;;;;;5011092;28;20038;-68
2021/08/04 10:54:12;;;;;;;1.83;1.33;;;20.00;79.30;;;;;;4993374;28;20022;-68
2021/08/04 10:56:41;;;;;;;1.40;1.30;;;20.00;79.20;;;;;;5001879;28;20033;-68
2021/08/04 10:59:12;;;;;;;1.80;1.40;;;20.20;79.30;;;;;;5011084;28;20041;-68
2021/08/04 11:01:42;;;;;;;1.58;1.35;;;20.30;79.60;;;;;;5010106;28;20022;-68
2021/08/04 11:04:28;;;;;;;1.50;1.35;;;20.50;79.40;;;;;;5008000;28;20038;-68
2021/08/04 11:07:16;;;;;;;2.42;1.10;;;20.50;78.20;;;;;;4999704;28;20046;-68
2021/08/04 11:09:43;;;;;;;2.08;1.50;;;20.30;78.10;;;;;;5010180;28;20033;-68
2021/08/04 11:12:11;;;;;;;1.95;1.38;;;20.30;78.40;;;;;;5014799;28;20030;-68
2021/08/04 11:14:56;;;;;;;2.28;1.33;;;20.30;78.40;;;;;;5005463;28;20359;-68
2021/08/04 11:17:30;;;;;;;2.40;1.33;;;20.30;78.50;;;;;;5014173;28;20030;-68
2021/08/04 11:20:06;;;;;;;1.50;1.40;;;20.30;79.00;;;;;;5014853;28;20038;-68
2021/08/04 11:22:34;;;;;;;1.50;1.30;;;20.40;78.20;;;;;;5014847;28;20076;-68
2021/08/04 11:25:07;;;;;;;1.27;1.17;;;20.50;77.80;;;;;;5013764;28;20541;-68
2021/08/04 11:27:44;;;;;;;0.85;0.85;;;20.60;77.90;;;;;;5014148;28;20430;-68
2021/08/04 11:30:34;;;;;;;1.55;1.10;;;20.70;77.50;;;;;;4996600;28;20037;-68
2021/08/04 11:33:18;;;;;;;2.20;1.25;;;20.80;76.50;;;;;;5006489;28;20042;-68
2021/08/04 11:35:44;;;;;;;2.88;1.08;;;20.80;76.30;;;;;;5013225;28;20030;-68
2021/08/04 11:38:10;;;;;;;1.20;1.10;;;20.80;76.40;;;;;;5014191;28;20034;-68
2021/08/04 11:40:35;;;;;;;0.90;0.90;;;20.80;76.10;;;;;;5014046;28;20376;-68
2021/08/04 11:43:01;;;;;;;1.42;1.30;;;20.80;76.10;;;;;;4996186;28;20026;-68
2021/08/04 11:45:28;;;;;;;1.73;1.30;;;20.70;76.20;;;;;;5013501;28;20033;-68
2021/08/04 11:47:54;;;;;;;1.35;1.25;;;20.70;76.20;;;;;;5013890;28;20018;-68
2021/08/04 11:50:20;;;;;;;1.35;1.25;;;20.70;76.10;;;;;;5014207;28;20033;-68
2021/08/04 11:52:45;;;;;;;2.08;1.63;;;20.70;75.80;;;;;;5014265;28;20101;-69
2021/08/04 11:55:12;;;;;;;1.15;1.08;;;20.60;76.00;;;;;;5007833;28;20022;-69
2021/08/04 11:57:43;;;;;;;2.47;1.00;;;20.70;76.10;;;;;;5013607;28;20573;-68
2021/08/04 12:00:21;;;;;;;1.13;1.02;;;20.80;76.20;;;;;;5013343;28;20037;-69
2021/08/04 12:02:47;;;;;;;0.82;0.80;;;20.80;75.40;;;;;;5013326;28;20025;-69
2021/08/04 12:05:13;;;;;;;3.55;1.10;;;20.80;75.00;;;;;;5012741;28;20091;-69
2021/08/04 12:07:43;;;;;;;1.52;0.88;;;20.70;74.80;;;;;;5013790;28;20566;-69
2021/08/04 12:10:14;;;;;;;0.93;0.93;;;20.60;75.00;;;;;;5013105;28;20084;-69
2021/08/04 12:12:41;;;;;;;1.10;0.90;;;20.70;75.00;;;;;;5013477;28;20528;-69
2021/08/04 12:15:23;;;;;;;0.70;0.70;;;20.70;74.70;;;;;;5005088;28;20031;-68
2021/08/04 12:17:56;;;;;;;1.40;0.85;;;20.80;75.10;;;;;;5008095;28;20029;-68
2021/08/04 12:20:27;;;;;;;0.95;0.95;;;20.70;74.40;;;;;;5013434;28;20702;-68
2021/08/04 12:23:10;;;;;;;3.17;1.05;;;20.70;74.40;;;;;;5012567;28;20363;-69
2021/08/04 12:25:39;;;;;;;1.00;0.90;;;20.60;74.30;;;;;;5012361;28;20096;-69
2021/08/04 12:28:06;;;;;;;1.20;1.00;;;20.60;74.80;;;;;;5013329;28;20025;-69
2021/08/04 12:30:35;;;;;;;0.73;0.73;;;20.50;74.50;;;;;;5013624;28;20041;-69
2021/08/04 12:33:06;;;;;;;1.25;1.05;;;20.60;74.70;;;;;;5013146;28;20026;-69
2021/08/04 12:36:00;;;;;;;2.15;0.82;;;20.60;75.20;;;;;;5012314;28;20030;-69
2021/08/04 12:38:26;;;;;;;1.35;1.10;;;20.70;75.10;;;;;;5013286;28;20517;-69
2021/08/04 12:40:54;;;;;;;2.17;1.02;;;20.80;75.10;;;;;;5012946;28;20382;-69
2021/08/04 12:43:23;;;;;;;1.63;1.00;;;20.90;75.00;;;;;;5012870;28;20041;-69
2021/08/04 12:45:56;;;;;;;1.58;1.05;;;21.00;74.90;;;;;;5012014;28;20101;-69
2021/08/04 12:48:40;;;;;;;1.42;1.10;;;21.00;73.90;;;;;;5013015;28;20512;-69
2021/08/04 12:51:13;;;;;;;3.70;1.10;;;20.90;73.60;;;;;;5013273;28;20565;-69
2021/08/04 12:53:40;;;;;;;1.08;1.00;;;20.80;73.80;;;;;;5011933;28;20117;-69